sensor_id;sensor_type;location;lat;lon;timestamp;temperature;humidity
24452;DHT22;13350;50.984;5.822;2023-06-04T00:00:43;10.70;99.90
24452;DHT22;13350;50.984;5.822;2023-06-04T00:03:12;10.40;99.90
24452;DHT22;13350;50.984;5.822;2023-06-04T00:05:39;10.20;99.90
24452;DHT22;13350;50.984;5.822;2023-06-04T00:08:07;10.00;99.90
24452;DHT22;13350;50.984;5.822;2023-06-04T00:10:34;10.00;99.90
24452;DHT22;13350;50.984;5.822;2023-06-04T00:13:01;9.70;99.90
24452;DHT22;13350;50.984;5.822;2023-06-04T00:15:28;9.70;99.90
24452;DHT22;13350;50.984;5.822;2023-06-04T00:17:55;9.60;99.90
24452;DHT22;13350;50.984;5.822;2023-06-04T00:20:24;9.50;99.90
24452;DHT22;13350;50.984;5.822;2023-06-04T00:22:51;9.40;99.90
24452;DHT22;13350;50.984;5.822;2023-06-04T00:25:18;9.40;99.90
24452;DHT22;13350;50.984;5.822;2023-06-04T00:27:45;9.30;99.90
24452;DHT22;13350;50.984;5.822;2023-06-04T00:30:13;9.20;99.90
24452;DHT22;13350;50.984;5.822;2023-06-04T00:32:40;9.10;99.90
24452;DHT22;13350;50.984;5.822;2023-06-04T00:35:08;9.10;99.90
24452;DHT22;13350;50.984;5.822;2023-06-04T00:37:37;9.10;99.90
24452;DHT22;13350;50.984;5.822;2023-06-04T00:40:06;9.00;99.90
24452;DHT22;13350;50.984;5.822;2023-06-04T00:42:33;8.90;99.90
24452;DHT22;13350;50.984;5.822;2023-06-04T00:45:00;8.90;99.90
24452;DHT22;13350;50.984;5.822;2023-06-04T00:47:27;8.90;99.90
24452;DHT22;13350;50.984;5.822;2023-06-04T00:49:56;9.10;99.90
24452;DHT22;13350;50.984;5.822;2023-06-04T00:52:25;9.30;99.90
24452;DHT22;13350;50.984;5.822;2023-06-04T00:54:53;9.40;99.90
24452;DHT22;13350;50.984;5.822;2023-06-04T00:57:21;9.50;99.90
24452;DHT22;13350;50.984;5.822;2023-06-04T00:59:48;9.50;99.90
24452;DHT22;13350;50.984;5.822;2023-06-04T01:02:19;9.40;99.90
24452;DHT22;13350;50.984;5.822;2023-06-04T01:04:53;9.20;99.90
24452;DHT22;13350;50.984;5.822;2023-06-04T01:07:22;9.20;99.90
24452;DHT22;13350;50.984;5.822;2023-06-04T01:09:49;9.20;99.90
24452;DHT22;13350;50.984;5.822;2023-06-04T01:12:18;9.40;99.90
24452;DHT22;13350;50.984;5.822;2023-06-04T01:14:45;9.50;99.90
24452;DHT22;13350;50.984;5.822;2023-06-04T01:17:19;9.60;99.90
24452;DHT22;13350;50.984;5.822;2023-06-04T01:20:01;9.80;99.90
24452;DHT22;13350;50.984;5.822;2023-06-04T01:22:35;10.00;99.90
24452;DHT22;13350;50.984;5.822;2023-06-04T01:25:04;10.00;99.90
24452;DHT22;13350;50.984;5.822;2023-06-04T01:27:35;10.00;99.90
24452;DHT22;13350;50.984;5.822;2023-06-04T01:30:02;10.00;99.90
24452;DHT22;13350;50.984;5.822;2023-06-04T01:32:30;10.00;99.90
24452;DHT22;13350;50.984;5.822;2023-06-04T01:34:59;10.00;99.90
24452;DHT22;13350;50.984;5.822;2023-06-04T01:37:26;9.90;99.90
24452;DHT22;13350;50.984;5.822;2023-06-04T01:39:53;9.80;99.90
24452;DHT22;13350;50.984;5.822;2023-06-04T01:42:20;9.80;99.90
24452;DHT22;13350;50.984;5.822;2023-06-04T01:44:49;9.90;99.90
24452;DHT22;13350;50.984;5.822;2023-06-04T01:47:16;9.90;99.90
24452;DHT22;13350;50.984;5.822;2023-06-04T01:49:43;9.90;99.90
24452;DHT22;13350;50.984;5.822;2023-06-04T01:52:10;10.00;99.90
24452;DHT22;13350;50.984;5.822;2023-06-04T01:54:37;10.00;99.90
24452;DHT22;13350;50.984;5.822;2023-06-04T01:57:06;10.00;99.90
24452;DHT22;13350;50.984;5.822;2023-06-04T01:59:35;10.00;99.90
24452;DHT22;13350;50.984;5.822;2023-06-04T02:02:04;10.10;99.90
24452;DHT22;13350;50.984;5.822;2023-06-04T02:04:31;10.10;99.90
24452;DHT22;13350;50.984;5.822;2023-06-04T02:06:58;10.00;99.90
24452;DHT22;13350;50.984;5.822;2023-06-04T02:09:26;10.00;99.90
24452;DHT22;13350;50.984;5.822;2023-06-04T02:11:53;10.20;99.90
24452;DHT22;13350;50.984;5.822;2023-06-04T02:14:20;10.20;99.90
24452;DHT22;13350;50.984;5.822;2023-06-04T02:16:47;10.30;99.90
24452;DHT22;13350;50.984;5.822;2023-06-04T02:19:17;10.30;99.90
24452;DHT22;13350;50.984;5.822;2023-06-04T02:21:45;10.20;99.90
24452;DHT22;13350;50.984;5.822;2023-06-04T02:24:12;10.30;99.90
24452;DHT22;13350;50.984;5.822;2023-06-04T02:26:39;10.30;99.90
24452;DHT22;13350;50.984;5.822;2023-06-04T02:29:06;10.20;99.90
24452;DHT22;13350;50.984;5.822;2023-06-04T02:31:33;10.10;99.90
24452;DHT22;13350;50.984;5.822;2023-06-04T02:34:00;10.10;99.90
24452;DHT22;13350;50.984;5.822;2023-06-04T02:36:29;10.10;99.90
24452;DHT22;13350;50.984;5.822;2023-06-04T02:38:57;10.00;99.90
24452;DHT22;13350;50.984;5.822;2023-06-04T02:41:24;9.90;99.90
24452;DHT22;13350;50.984;5.822;2023-06-04T02:43:51;9.80;99.90
24452;DHT22;13350;50.984;5.822;2023-06-04T02:46:19;9.90;99.90
24452;DHT22;13350;50.984;5.822;2023-06-04T02:48:46;10.00;99.90
24452;DHT22;13350;50.984;5.822;2023-06-04T02:51:13;10.00;99.90
24452;DHT22;13350;50.984;5.822;2023-06-04T02:53:41;9.90;99.90
24452;DHT22;13350;50.984;5.822;2023-06-04T02:56:08;9.90;99.90
24452;DHT22;13350;50.984;5.822;2023-06-04T02:58:36;10.00;99.90
24452;DHT22;13350;50.984;5.822;2023-06-04T03:01:07;9.90;99.90
24452;DHT22;13350;50.984;5.822;2023-06-04T03:03:35;9.80;99.90
24452;DHT22;13350;50.984;5.822;2023-06-04T03:06:03;9.70;99.90
24452;DHT22;13350;50.984;5.822;2023-06-04T03:08:30;9.60;99.90
24452;DHT22;13350;50.984;5.822;2023-06-04T03:10:59;9.60;99.90
24452;DHT22;13350;50.984;5.822;2023-06-04T03:13:26;9.50;99.90
24452;DHT22;13350;50.984;5.822;2023-06-04T03:15:53;9.50;99.90
24452;DHT22;13350;50.984;5.822;2023-06-04T03:18:21;9.40;99.90
24452;DHT22;13350;50.984;5.822;2023-06-04T03:20:48;9.30;99.90
24452;DHT22;13350;50.984;5.822;2023-06-04T03:23:15;9.30;99.90
24452;DHT22;13350;50.984;5.822;2023-06-04T03:25:42;9.30;99.90
24452;DHT22;13350;50.984;5.822;2023-06-04T03:28:11;9.40;99.90
24452;DHT22;13350;50.984;5.822;2023-06-04T03:30:39;9.50;99.90
24452;DHT22;13350;50.984;5.822;2023-06-04T03:33:07;9.50;99.90
24452;DHT22;13350;50.984;5.822;2023-06-04T03:35:34;9.40;99.90
24452;DHT22;13350;50.984;5.822;2023-06-04T03:38:01;9.20;99.90
24452;DHT22;13350;50.984;5.822;2023-06-04T03:40:28;9.20;99.90
24452;DHT22;13350;50.984;5.822;2023-06-04T03:42:55;9.10;99.90
24452;DHT22;13350;50.984;5.822;2023-06-04T03:45:24;9.00;99.90
24452;DHT22;13350;50.984;5.822;2023-06-04T03:47:51;9.10;99.90
24452;DHT22;13350;50.984;5.822;2023-06-04T03:50:18;9.20;99.90
24452;DHT22;13350;50.984;5.822;2023-06-04T03:52:47;9.20;99.90
24452;DHT22;13350;50.984;5.822;2023-06-04T03:55:14;9.30;99.90
24452;DHT22;13350;50.984;5.822;2023-06-04T03:57:42;9.30;99.90
24452;DHT22;13350;50.984;5.822;2023-06-04T04:00:10;9.40;99.90
24452;DHT22;13350;50.984;5.822;2023-06-04T04:02:40;9.40;99.90
24452;DHT22;13350;50.984;5.822;2023-06-04T04:05:08;9.50;99.90
24452;DHT22;13350;50.984;5.822;2023-06-04T04:07:36;9.40;99.90
24452;DHT22;13350;50.984;5.822;2023-06-04T04:10:05;9.50;99.90
24452;DHT22;13350;50.984;5.822;2023-06-04T04:12:32;9.50;99.90
24452;DHT22;13350;50.984;5.822;2023-06-04T04:14:59;9.60;99.90
24452;DHT22;13350;50.984;5.822;2023-06-04T04:17:26;9.60;99.90
24452;DHT22;13350;50.984;5.822;2023-06-04T04:19:55;9.60;99.90
24452;DHT22;13350;50.984;5.822;2023-06-04T04:22:22;9.70;99.90
24452;DHT22;13350;50.984;5.822;2023-06-04T04:24:50;9.80;99.90
24452;DHT22;13350;50.984;5.822;2023-06-04T04:27:17;9.90;99.90
24452;DHT22;13350;50.984;5.822;2023-06-04T04:29:44;9.90;99.90
24452;DHT22;13350;50.984;5.822;2023-06-04T04:32:13;10.00;99.90
24452;DHT22;13350;50.984;5.822;2023-06-04T04:34:51;10.10;99.90
24452;DHT22;13350;50.984;5.822;2023-06-04T04:37:20;10.20;99.90
24452;DHT22;13350;50.984;5.822;2023-06-04T04:39:48;10.20;99.90
24452;DHT22;13350;50.984;5.822;2023-06-04T04:42:17;10.30;99.90
24452;DHT22;13350;50.984;5.822;2023-06-04T04:44:44;10.40;99.90
24452;DHT22;13350;50.984;5.822;2023-06-04T04:47:14;10.50;99.90
24452;DHT22;13350;50.984;5.822;2023-06-04T04:49:41;10.50;99.90
24452;DHT22;13350;50.984;5.822;2023-06-04T04:52:08;10.60;99.90
24452;DHT22;13350;50.984;5.822;2023-06-04T04:54:36;10.70;99.90
24452;DHT22;13350;50.984;5.822;2023-06-04T04:57:04;10.70;99.90
24452;DHT22;13350;50.984;5.822;2023-06-04T04:59:33;10.80;99.90
24452;DHT22;13350;50.984;5.822;2023-06-04T05:02:00;10.90;99.90
24452;DHT22;13350;50.984;5.822;2023-06-04T05:04:28;11.00;99.90
24452;DHT22;13350;50.984;5.822;2023-06-04T05:06:55;11.10;99.90
24452;DHT22;13350;50.984;5.822;2023-06-04T05:09:23;11.20;99.90
24452;DHT22;13350;50.984;5.822;2023-06-04T05:11:52;11.30;99.90
24452;DHT22;13350;50.984;5.822;2023-06-04T05:14:19;11.40;99.90
24452;DHT22;13350;50.984;5.822;2023-06-04T05:16:46;11.40;99.90
24452;DHT22;13350;50.984;5.822;2023-06-04T05:19:15;11.50;99.90
24452;DHT22;13350;50.984;5.822;2023-06-04T05:21:42;11.60;99.90
24452;DHT22;13350;50.984;5.822;2023-06-04T05:24:09;11.60;99.90
24452;DHT22;13350;50.984;5.822;2023-06-04T05:26:37;11.70;99.90
24452;DHT22;13350;50.984;5.822;2023-06-04T05:29:07;11.80;99.90
24452;DHT22;13350;50.984;5.822;2023-06-04T05:31:35;11.90;99.90
24452;DHT22;13350;50.984;5.822;2023-06-04T05:34:02;12.00;99.90
24452;DHT22;13350;50.984;5.822;2023-06-04T05:36:31;12.30;99.90
24452;DHT22;13350;50.984;5.822;2023-06-04T05:38:58;12.40;99.90
24452;DHT22;13350;50.984;5.822;2023-06-04T05:41:25;12.40;99.90
24452;DHT22;13350;50.984;5.822;2023-06-04T05:43:53;12.50;99.90
24452;DHT22;13350;50.984;5.822;2023-06-04T05:46:22;12.70;99.90
24452;DHT22;13350;50.984;5.822;2023-06-04T05:48:49;13.30;99.90
24452;DHT22;13350;50.984;5.822;2023-06-04T05:51:16;13.90;99.90
24452;DHT22;13350;50.984;5.822;2023-06-04T05:53:43;14.40;99.90
24452;DHT22;13350;50.984;5.822;2023-06-04T05:56:11;14.70;99.90
24452;DHT22;13350;50.984;5.822;2023-06-04T05:58:38;15.10;99.90
24452;DHT22;13350;50.984;5.822;2023-06-04T06:01:05;15.60;99.90
24452;DHT22;13350;50.984;5.822;2023-06-04T06:03:35;15.90;99.90
24452;DHT22;13350;50.984;5.822;2023-06-04T06:06:02;16.00;99.90
24452;DHT22;13350;50.984;5.822;2023-06-04T06:08:31;16.10;99.90
24452;DHT22;13350;50.984;5.822;2023-06-04T06:10:58;16.30;99.90
24452;DHT22;13350;50.984;5.822;2023-06-04T06:13:26;16.40;99.90
24452;DHT22;13350;50.984;5.822;2023-06-04T06:15:55;16.70;99.90
24452;DHT22;13350;50.984;5.822;2023-06-04T06:18:23;16.70;99.90
24452;DHT22;13350;50.984;5.822;2023-06-04T06:20:51;17.10;99.90
24452;DHT22;13350;50.984;5.822;2023-06-04T06:23:19;17.20;99.90
24452;DHT22;13350;50.984;5.822;2023-06-04T06:25:48;17.50;99.90
24452;DHT22;13350;50.984;5.822;2023-06-04T06:28:17;17.50;99.90
24452;DHT22;13350;50.984;5.822;2023-06-04T06:30:44;17.90;99.90
24452;DHT22;13350;50.984;5.822;2023-06-04T06:33:13;18.20;99.90
24452;DHT22;13350;50.984;5.822;2023-06-04T06:35:41;18.30;99.90
24452;DHT22;13350;50.984;5.822;2023-06-04T06:38:13;18.30;99.90
24452;DHT22;13350;50.984;5.822;2023-06-04T06:40:41;18.40;99.90
24452;DHT22;13350;50.984;5.822;2023-06-04T06:43:08;18.30;99.90
24452;DHT22;13350;50.984;5.822;2023-06-04T06:45:35;18.40;99.90
24452;DHT22;13350;50.984;5.822;2023-06-04T06:48:03;18.60;99.90
24452;DHT22;13350;50.984;5.822;2023-06-04T06:50:31;19.10;99.90
24452;DHT22;13350;50.984;5.822;2023-06-04T06:52:59;19.30;99.90
24452;DHT22;13350;50.984;5.822;2023-06-04T06:55:27;19.40;99.90
24452;DHT22;13350;50.984;5.822;2023-06-04T06:57:55;19.50;99.90
24452;DHT22;13350;50.984;5.822;2023-06-04T07:00:22;19.30;99.90
24452;DHT22;13350;50.984;5.822;2023-06-04T07:02:49;19.50;99.90
24452;DHT22;13350;50.984;5.822;2023-06-04T07:05:16;19.90;99.90
24452;DHT22;13350;50.984;5.822;2023-06-04T07:07:44;20.40;99.90
24452;DHT22;13350;50.984;5.822;2023-06-04T07:10:12;20.60;99.90
24452;DHT22;13350;50.984;5.822;2023-06-04T07:12:41;20.60;99.90
24452;DHT22;13350;50.984;5.822;2023-06-04T07:15:08;21.10;99.90
24452;DHT22;13350;50.984;5.822;2023-06-04T07:17:36;20.80;99.90
24452;DHT22;13350;50.984;5.822;2023-06-04T07:20:04;20.70;99.90
24452;DHT22;13350;50.984;5.822;2023-06-04T07:22:33;20.60;99.90
24452;DHT22;13350;50.984;5.822;2023-06-04T07:25:01;20.50;99.90
24452;DHT22;13350;50.984;5.822;2023-06-04T07:27:28;20.80;99.90
24452;DHT22;13350;50.984;5.822;2023-06-04T07:29:56;21.20;99.90
24452;DHT22;13350;50.984;5.822;2023-06-04T07:32:24;21.00;99.90
24452;DHT22;13350;50.984;5.822;2023-06-04T07:34:51;21.40;99.90
24452;DHT22;13350;50.984;5.822;2023-06-04T07:37:18;21.50;99.90
24452;DHT22;13350;50.984;5.822;2023-06-04T07:39:45;21.80;99.90
24452;DHT22;13350;50.984;5.822;2023-06-04T07:42:13;21.60;99.90
24452;DHT22;13350;50.984;5.822;2023-06-04T07:44:40;21.90;99.90
24452;DHT22;13350;50.984;5.822;2023-06-04T07:47:09;22.00;98.60
24452;DHT22;13350;50.984;5.822;2023-06-04T07:49:36;22.00;99.60
24452;DHT22;13350;50.984;5.822;2023-06-04T07:52:04;21.90;97.20
24452;DHT22;13350;50.984;5.822;2023-06-04T07:54:31;21.60;97.20
24452;DHT22;13350;50.984;5.822;2023-06-04T07:56:59;21.70;98.00
24452;DHT22;13350;50.984;5.822;2023-06-04T07:59:26;21.80;98.30
24452;DHT22;13350;50.984;5.822;2023-06-04T08:01:55;21.90;97.20
24452;DHT22;13350;50.984;5.822;2023-06-04T08:04:23;21.80;96.70
24452;DHT22;13350;50.984;5.822;2023-06-04T08:06:51;21.80;96.50
24452;DHT22;13350;50.984;5.822;2023-06-04T08:09:18;21.70;96.20
24452;DHT22;13350;50.984;5.822;2023-06-04T08:11:45;21.80;96.60
24452;DHT22;13350;50.984;5.822;2023-06-04T08:14:13;21.80;96.20
24452;DHT22;13350;50.984;5.822;2023-06-04T08:16:40;22.10;94.70
24452;DHT22;13350;50.984;5.822;2023-06-04T08:19:07;22.30;97.70
24452;DHT22;13350;50.984;5.822;2023-06-04T08:21:36;23.00;96.80
24452;DHT22;13350;50.984;5.822;2023-06-04T08:24:03;22.70;93.70
24452;DHT22;13350;50.984;5.822;2023-06-04T08:26:31;23.00;95.10
24452;DHT22;13350;50.984;5.822;2023-06-04T08:28:58;23.40;93.90
24452;DHT22;13350;50.984;5.822;2023-06-04T08:31:26;23.20;92.20
24452;DHT22;13350;50.984;5.822;2023-06-04T08:33:53;23.60;91.30
24452;DHT22;13350;50.984;5.822;2023-06-04T08:36:20;23.80;93.50
24452;DHT22;13350;50.984;5.822;2023-06-04T08:38:49;24.00;91.20
24452;DHT22;13350;50.984;5.822;2023-06-04T08:41:34;23.80;92.10
24452;DHT22;13350;50.984;5.822;2023-06-04T08:44:02;24.40;92.10
24452;DHT22;13350;50.984;5.822;2023-06-04T08:46:32;24.00;89.40
24452;DHT22;13350;50.984;5.822;2023-06-04T08:49:00;24.00;88.40
24452;DHT22;13350;50.984;5.822;2023-06-04T08:51:29;24.10;90.10
24452;DHT22;13350;50.984;5.822;2023-06-04T08:54:00;24.00;90.20
24452;DHT22;13350;50.984;5.822;2023-06-04T08:56:28;24.40;89.40
24452;DHT22;13350;50.984;5.822;2023-06-04T08:59:01;24.20;87.20
24452;DHT22;13350;50.984;5.822;2023-06-04T09:01:28;24.20;87.70
24452;DHT22;13350;50.984;5.822;2023-06-04T09:03:58;24.40;88.30
24452;DHT22;13350;50.984;5.822;2023-06-04T09:06:25;25.20;84.90
24452;DHT22;13350;50.984;5.822;2023-06-04T09:08:56;25.00;85.80
24452;DHT22;13350;50.984;5.822;2023-06-04T09:11:31;24.50;85.50
24452;DHT22;13350;50.984;5.822;2023-06-04T09:14:02;25.00;86.80
24452;DHT22;13350;50.984;5.822;2023-06-04T09:16:30;25.00;82.30
24452;DHT22;13350;50.984;5.822;2023-06-04T09:19:04;25.70;85.50
24452;DHT22;13350;50.984;5.822;2023-06-04T09:21:31;24.80;81.10
24452;DHT22;13350;50.984;5.822;2023-06-04T09:23:58;24.90;83.10
24452;DHT22;13350;50.984;5.822;2023-06-04T09:26:27;25.70;77.00
24452;DHT22;13350;50.984;5.822;2023-06-04T09:28:54;25.90;75.90
24452;DHT22;13350;50.984;5.822;2023-06-04T09:31:23;26.00;77.90
24452;DHT22;13350;50.984;5.822;2023-06-04T09:33:52;26.00;75.20
24452;DHT22;13350;50.984;5.822;2023-06-04T09:36:19;26.50;73.50
24452;DHT22;13350;50.984;5.822;2023-06-04T09:38:47;26.40;73.00
24452;DHT22;13350;50.984;5.822;2023-06-04T09:41:16;25.90;73.70
24452;DHT22;13350;50.984;5.822;2023-06-04T09:43:46;26.30;74.30
24452;DHT22;13350;50.984;5.822;2023-06-04T09:46:15;25.50;75.60
24452;DHT22;13350;50.984;5.822;2023-06-04T09:48:43;26.00;74.80
24452;DHT22;13350;50.984;5.822;2023-06-04T09:51:12;25.70;74.60
24452;DHT22;13350;50.984;5.822;2023-06-04T09:53:41;25.90;74.80
24452;DHT22;13350;50.984;5.822;2023-06-04T09:56:08;26.20;71.70
24452;DHT22;13350;50.984;5.822;2023-06-04T09:58:38;26.40;70.90
24452;DHT22;13350;50.984;5.822;2023-06-04T10:01:06;26.30;71.50
24452;DHT22;13350;50.984;5.822;2023-06-04T10:03:35;25.90;69.80
24452;DHT22;13350;50.984;5.822;2023-06-04T10:06:04;25.40;71.40
24452;DHT22;13350;50.984;5.822;2023-06-04T10:08:32;26.50;70.50
24452;DHT22;13350;50.984;5.822;2023-06-04T10:11:00;26.80;67.70
24452;DHT22;13350;50.984;5.822;2023-06-04T10:13:29;26.50;67.80
24452;DHT22;13350;50.984;5.822;2023-06-04T10:15:58;26.40;68.90
24452;DHT22;13350;50.984;5.822;2023-06-04T10:18:27;27.10;65.70
24452;DHT22;13350;50.984;5.822;2023-06-04T10:20:56;27.00;63.40
24452;DHT22;13350;50.984;5.822;2023-06-04T10:23:23;27.20;65.60
24452;DHT22;13350;50.984;5.822;2023-06-04T10:25:51;26.90;62.30
24452;DHT22;13350;50.984;5.822;2023-06-04T10:28:20;27.30;65.70
